createdAt,value
2023-05-19T00:00:54.849Z,84.97
2023-05-19T00:01:54.918Z,84.77
2023-05-19T00:02:56.018Z,84.56
2023-05-19T00:03:54.877Z,84.87
2023-05-19T00:04:54.821Z,85.38
2023-05-19T00:05:54.830Z,85.28
2023-05-19T00:06:54.830Z,85.38
2023-05-19T00:07:54.775Z,85.69
2023-05-19T00:08:54.848Z,85.59
2023-05-19T00:09:54.775Z,85.38
2023-05-19T00:10:54.709Z,85.59
2023-05-19T00:11:54.750Z,85.59
2023-05-19T00:12:54.712Z,85.69
2023-05-19T00:13:54.718Z,85.83
2023-05-19T00:14:54.715Z,86.04
2023-05-19T00:15:54.705Z,86.15
2023-05-19T00:16:54.628Z,86.35
2023-05-19T00:17:54.706Z,86.35
2023-05-19T00:18:54.649Z,86.24
2023-05-19T00:19:54.638Z,85.94
2023-05-19T00:20:54.643Z,86.24
2023-05-19T00:21:54.589Z,86.35
2023-05-19T00:22:54.583Z,86.55
2023-05-19T00:23:54.578Z,86.55
2023-05-19T00:24:54.523Z,86.45
2023-05-19T00:25:54.564Z,86.45
2023-05-19T00:26:54.615Z,86.45
2023-05-19T00:27:54.546Z,86.55
2023-05-19T00:28:54.494Z,86.87
2023-05-19T00:29:54.481Z,86.76
2023-05-19T00:30:54.443Z,86.66
2023-05-19T00:31:54.499Z,86.87
2023-05-19T00:32:54.485Z,87.07
2023-05-19T00:33:54.447Z,86.76
2023-05-19T00:34:54.417Z,86.87
2023-05-19T00:35:54.404Z,87.21
2023-05-19T00:36:55.320Z,87.42
2023-05-19T00:37:54.399Z,87.32
2023-05-19T00:38:54.451Z,87.42
2023-05-19T00:39:54.373Z,87.83
2023-05-19T00:40:55.295Z,88.24
2023-05-19T00:41:54.313Z,88.45
2023-05-19T00:42:54.312Z,88.65
2023-05-19T00:43:54.294Z,89.01
2023-05-19T00:44:54.289Z,89.11
2023-05-19T00:45:54.289Z,89.62
2023-05-19T00:46:54.267Z,90.14
2023-05-19T00:47:54.262Z,90.35
2023-05-19T00:48:54.207Z,90.70
2023-05-19T00:49:54.243Z,90.80
2023-05-19T00:50:54.199Z,91.01
2023-05-19T00:51:54.217Z,91.42
2023-05-19T00:52:54.176Z,91.52
2023-05-19T00:53:54.163Z,91.52
2023-05-19T00:54:54.144Z,91.52
2023-05-19T00:55:54.131Z,91.56
2023-05-19T00:56:54.214Z,91.67
2023-05-19T00:57:54.131Z,91.67
2023-05-19T00:58:54.062Z,91.46
2023-05-19T00:59:54.111Z,91.16
2023-05-19T01:00:54.100Z,90.95
2023-05-19T01:01:54.054Z,90.74
2023-05-19T01:02:54.170Z,90.95
2023-05-19T01:03:54.147Z,91.05
2023-05-19T01:04:54.005Z,91.16
2023-05-19T01:05:53.990Z,91.26
2023-05-19T01:06:53.998Z,91.36
2023-05-19T01:07:53.976Z,91.56
2023-05-19T01:08:53.972Z,91.67
2023-05-19T01:09:53.973Z,91.71
2023-05-19T01:10:53.897Z,92.02
2023-05-19T01:11:53.939Z,91.92
2023-05-19T01:12:53.902Z,91.92
2023-05-19T01:13:53.884Z,92.44
2023-05-19T01:14:53.910Z,92.54
2023-05-19T01:15:53.867Z,92.13
2023-05-19T01:16:53.904Z,91.92
2023-05-19T01:17:53.903Z,91.96
2023-05-19T01:18:53.880Z,92.17
2023-05-19T01:19:53.809Z,92.07
2023-05-19T01:20:53.861Z,92.58
2023-05-19T01:21:53.761Z,92.38
2023-05-19T01:22:53.793Z,92.48
2023-05-19T01:23:53.721Z,92.89
2023-05-19T01:24:53.737Z,92.99
2023-05-19T01:25:53.727Z,92.93
2023-05-19T01:26:53.771Z,93.04
2023-05-19T01:27:53.701Z,93.04
2023-05-19T01:28:53.712Z,93.24
2023-05-19T01:29:53.659Z,93.24
2023-05-19T01:30:53.689Z,93.35
2023-05-19T01:31:53.696Z,93.76
2023-05-19T01:32:53.803Z,94.07
2023-05-19T01:33:53.619Z,94.38
2023-05-19T01:34:53.634Z,94.28
2023-05-19T01:35:53.582Z,94.18
2023-05-19T01:36:53.575Z,94.07
2023-05-19T01:37:53.573Z,93.87
2023-05-19T01:38:53.584Z,93.66
2023-05-19T01:39:53.552Z,93.45
2023-05-19T01:40:53.557Z,93.14
2023-05-19T01:41:53.492Z,92.83
2023-05-19T01:42:55.035Z,92.63
2023-05-19T01:43:53.468Z,92.42
2023-05-19T01:44:53.529Z,92.32
2023-05-19T01:45:53.485Z,92.11
2023-05-19T01:46:53.454Z,91.90
2023-05-19T01:47:53.476Z,91.80
2023-05-19T01:48:53.485Z,91.90
2023-05-19T01:49:53.381Z,92.11
2023-05-19T01:50:53.443Z,91.90
2023-05-19T01:51:53.396Z,92.32
2023-05-19T01:52:53.417Z,92.42
2023-05-19T01:53:53.344Z,92.32
2023-05-19T01:54:53.385Z,92.27
2023-05-19T01:55:53.324Z,92.38
2023-05-19T01:56:53.446Z,92.48
2023-05-19T01:57:53.314Z,92.79
2023-05-19T01:58:53.304Z,92.79
2023-05-19T01:59:53.288Z,92.89
2023-05-19T02:00:53.347Z,92.99
2023-05-19T02:01:53.257Z,92.99
2023-05-19T02:02:53.365Z,93.30
2023-05-19T02:03:53.234Z,93.72
2023-05-19T02:04:53.251Z,94.07
2023-05-19T02:05:53.214Z,94.28
2023-05-19T02:06:53.221Z,94.38
2023-05-19T02:07:53.162Z,94.59
2023-05-19T02:08:53.205Z,94.79
2023-05-19T02:09:53.166Z,94.90
2023-05-19T02:10:53.143Z,95.00
2023-05-19T02:11:53.128Z,95.10
2023-05-19T02:12:53.137Z,95.10
2023-05-19T02:13:53.073Z,95.10
2023-05-19T02:14:53.182Z,95.21
2023-05-19T02:15:53.092Z,95.42
2023-05-19T02:16:53.068Z,95.42
2023-05-19T02:17:53.066Z,95.21
2023-05-19T02:18:53.053Z,94.90
2023-05-19T02:19:53.028Z,94.48
2023-05-19T02:20:53.071Z,93.87
2023-05-19T02:21:53.004Z,93.66
2023-05-19T02:22:53.017Z,93.49
2023-05-19T02:23:52.945Z,93.60
2023-05-19T02:24:52.962Z,93.80
2023-05-19T02:25:52.963Z,94.43
2023-05-19T02:26:52.965Z,94.73
2023-05-19T02:27:59.916Z,94.94
2023-05-19T02:28:52.924Z,94.94
2023-05-19T02:29:52.865Z,94.94
2023-05-19T02:30:52.876Z,94.84
2023-05-19T02:31:52.924Z,94.84
2023-05-19T02:32:52.891Z,94.53
2023-05-19T02:33:52.845Z,94.22
2023-05-19T02:34:52.853Z,94.12
2023-05-19T02:35:52.790Z,94.01
2023-05-19T02:36:53.487Z,94.12
2023-05-19T02:37:52.785Z,94.22
2023-05-19T02:38:52.834Z,94.32
2023-05-19T02:39:52.727Z,94.63
2023-05-19T02:40:52.775Z,95.15
2023-05-19T02:41:53.676Z,95.56
2023-05-19T02:42:52.723Z,95.87
2023-05-19T02:43:52.709Z,95.87
2023-05-19T02:44:52.726Z,95.98
2023-05-19T02:45:52.795Z,96.08
2023-05-19T02:46:52.771Z,96.08
2023-05-19T02:47:52.713Z,96.08
2023-05-19T02:48:52.671Z,96.08
2023-05-19T02:49:52.612Z,95.87
2023-05-19T02:50:52.646Z,95.67
2023-05-19T02:51:53.336Z,95.56
2023-05-19T02:52:52.618Z,95.56
2023-05-19T02:53:52.568Z,95.56
2023-05-19T02:54:52.566Z,95.56
2023-05-19T02:55:52.549Z,95.67
2023-05-19T02:56:52.588Z,95.77
2023-05-19T02:57:52.531Z,96.08
2023-05-19T02:58:52.547Z,96.29
2023-05-19T02:59:52.479Z,96.29
2023-05-19T03:00:52.808Z,96.39
2023-05-19T03:01:53.434Z,96.39
2023-05-19T03:02:52.532Z,96.59
2023-05-19T03:03:52.529Z,96.59
2023-05-19T03:04:52.439Z,96.49
2023-05-19T03:05:53.123Z,96.59
2023-05-19T03:06:52.443Z,96.59
2023-05-19T03:07:52.375Z,96.59
2023-05-19T03:08:52.415Z,96.49
2023-05-19T03:09:52.369Z,96.19
2023-05-19T03:10:52.377Z,96.23
2023-05-19T03:11:52.329Z,96.33
2023-05-19T03:12:52.354Z,96.64
2023-05-19T03:13:52.293Z,96.95
2023-05-19T03:14:52.332Z,96.89
2023-05-19T03:15:52.317Z,97.10
2023-05-19T03:16:52.461Z,97.31
2023-05-19T03:17:53.094Z,97.72
2023-05-19T03:18:52.299Z,98.13
2023-05-19T03:19:52.216Z,98.65
2023-05-19T03:20:52.414Z,99.07
2023-05-19T03:21:52.186Z,99.17
2023-05-19T03:22:52.198Z,99.07
2023-05-19T03:23:52.185Z,99.17
2023-05-19T03:24:52.183Z,99.17
2023-05-19T03:25:52.170Z,98.96
2023-05-19T03:26:52.308Z,99.07
2023-05-19T03:27:52.113Z,99.07
2023-05-19T03:28:52.158Z,98.86
2023-05-19T03:29:52.092Z,98.75
2023-05-19T03:30:52.106Z,98.55
2023-05-19T03:31:52.152Z,98.44
2023-05-19T03:32:52.265Z,98.55
2023-05-19T03:33:52.064Z,98.55
2023-05-19T03:34:52.076Z,98.44
2023-05-19T03:35:52.012Z,98.24
2023-05-19T03:36:52.057Z,97.97
2023-05-19T03:37:51.993Z,97.56
2023-05-19T03:38:52.033Z,97.35
2023-05-19T03:39:51.985Z,97.14
2023-05-19T03:40:52.693Z,97.04
2023-05-19T03:41:51.933Z,96.83
2023-05-19T03:42:51.947Z,96.73
2023-05-19T03:43:51.931Z,96.52
2023-05-19T03:44:51.958Z,96.31
2023-05-19T03:45:51.926Z,96.31
2023-05-19T03:46:51.923Z,96.21
2023-05-19T03:47:51.871Z,96.31
2023-05-19T03:48:51.897Z,96.26
2023-05-19T03:49:51.825Z,96.26
2023-05-19T03:50:51.882Z,96.26
2023-05-19T03:51:51.860Z,96.26
2023-05-19T03:52:51.886Z,96.47
2023-05-19T03:53:51.818Z,96.47
2023-05-19T03:54:51.827Z,96.78
2023-05-19T03:55:51.754Z,96.98
2023-05-19T03:56:51.867Z,96.98
2023-05-19T03:57:52.724Z,96.88
2023-05-19T03:58:51.767Z,96.78
2023-05-19T03:59:51.702Z,96.88
2023-05-19T04:00:51.757Z,96.88
2023-05-19T04:01:51.747Z,96.88
2023-05-19T04:02:51.804Z,96.98
2023-05-19T04:03:51.677Z,97.09
2023-05-19T04:04:51.695Z,97.25
2023-05-19T04:05:51.645Z,97.35
2023-05-19T04:06:51.656Z,97.45
2023-05-19T04:07:51.600Z,97.35
2023-05-19T04:08:51.661Z,97.56
2023-05-19T04:09:51.592Z,97.66
2023-05-19T04:10:51.579Z,97.62
2023-05-19T04:11:51.568Z,97.83
2023-05-19T04:12:51.592Z,97.83
2023-05-19T04:13:51.517Z,97.93
2023-05-19T04:14:51.642Z,98.13
2023-05-19T04:15:51.606Z,98.03
2023-05-19T04:16:51.503Z,98.24
2023-05-19T04:17:51.542Z,98.34
2023-05-19T04:18:51.568Z,98.44
2023-05-19T04:19:51.439Z,98.55
2023-05-19T04:20:51.595Z,98.86
2023-05-19T04:21:51.410Z,98.96
2023-05-19T04:22:51.426Z,99.07
2023-05-19T04:23:51.422Z,98.96
2023-05-19T04:24:51.399Z,98.70
2023-05-19T04:25:51.384Z,98.80
2023-05-19T04:26:51.425Z,98.70
2023-05-19T04:27:51.330Z,99.01
2023-05-19T04:28:51.365Z,99.01
2023-05-19T04:29:51.305Z,99.11
2023-05-19T04:30:51.379Z,99.32
2023-05-19T04:31:51.320Z,99.63
2023-05-19T04:32:51.352Z,99.69
2023-05-19T04:33:51.280Z,99.69
2023-05-19T04:34:51.328Z,99.79
2023-05-19T04:35:51.235Z,99.69
2023-05-19T04:36:53.345Z,99.43
2023-05-19T04:37:51.209Z,99.13
2023-05-19T04:38:51.256Z,98.82
2023-05-19T04:39:51.197Z,98.92
2023-05-19T04:40:51.183Z,98.92
2023-05-19T04:41:51.186Z,99.02
2023-05-19T04:42:51.190Z,99.13
2023-05-19T04:43:51.125Z,99.23
2023-05-19T04:44:51.168Z,99.39
2023-05-19T04:45:51.117Z,99.60
2023-05-19T04:46:51.171Z,99.80
2023-05-19T04:47:51.118Z,99.91
2023-05-19T04:48:51.110Z,99.86
2023-05-19T04:49:51.045Z,99.96
2023-05-19T04:50:51.087Z,99.96
2023-05-19T04:51:52.240Z,99.99
2023-05-19T04:52:51.022Z,99.99
2023-05-19T04:53:51.014Z,99.99
2023-05-19T04:54:51.031Z,99.99
2023-05-19T04:55:50.968Z,99.99
2023-05-19T04:56:51.112Z,99.99
2023-05-19T04:57:50.945Z,99.52
2023-05-19T04:58:50.955Z,99.10
2023-05-19T04:59:50.943Z,98.90
2023-05-19T05:02:02.043Z,98.13
2023-05-19T05:03:02.924Z,97.92
2023-05-19T05:04:01.926Z,97.82
2023-05-19T05:05:01.892Z,97.56
2023-05-19T05:06:01.901Z,97.36
2023-05-19T05:07:01.840Z,97.26
2023-05-19T05:08:01.902Z,97.05
2023-05-19T05:09:01.816Z,96.80
2023-05-19T05:10:01.861Z,96.70
2023-05-19T05:11:01.826Z,96.55
2023-05-19T05:12:01.792Z,96.24
2023-05-19T05:13:01.790Z,95.83
2023-05-19T05:14:01.798Z,95.37
2023-05-19T05:15:01.746Z,95.06
2023-05-19T05:16:02.466Z,94.76
2023-05-19T05:17:01.697Z,93.88
2023-05-19T05:18:01.803Z,93.88
2023-05-19T05:19:01.740Z,93.88
2023-05-19T05:20:01.708Z,93.95
2023-05-19T05:21:01.673Z,93.64
2023-05-19T05:22:01.658Z,93.12
2023-05-19T05:23:01.645Z,92.77
2023-05-19T05:24:01.668Z,92.57
2023-05-19T05:25:01.592Z,92.46
2023-05-19T05:26:01.668Z,91.80
2023-05-19T05:27:01.592Z,91.70
2023-05-19T05:28:01.580Z,90.47
2023-05-19T05:29:01.540Z,90.47
2023-05-19T05:30:01.569Z,90.12
2023-05-19T05:31:02.503Z,89.60
2023-05-19T05:32:01.700Z,89.46
2023-05-19T05:33:01.623Z,89.04
2023-05-19T05:34:01.498Z,89.15
2023-05-19T05:35:01.458Z,88.70
2023-05-19T05:36:01.498Z,88.59
2023-05-19T05:37:01.430Z,87.88
2023-05-19T05:38:01.503Z,87.73
2023-05-19T05:39:01.425Z,87.02
2023-05-19T05:40:01.413Z,86.81
2023-05-19T05:41:01.400Z,86.66
2023-05-19T05:42:01.386Z,86.87
2023-05-19T05:43:01.350Z,86.46
2023-05-19T05:44:01.569Z,86.11
2023-05-19T05:45:01.394Z,85.91
2023-05-19T05:46:01.384Z,86.11
2023-05-19T05:47:01.302Z,86.38
2023-05-19T05:48:01.486Z,86.55
2023-05-19T05:49:01.284Z,84.09
2023-05-19T05:50:01.369Z,84.50
2023-05-19T05:51:01.270Z,84.19
2023-05-19T05:52:06.396Z,83.54
2023-05-19T05:53:02.244Z,83.74
2023-05-19T05:54:01.224Z,84.56
2023-05-19T05:55:01.203Z,83.23
2023-05-19T05:56:01.282Z,82.71
2023-05-19T05:57:01.180Z,82.98
2023-05-19T05:58:01.206Z,83.91
2023-05-19T05:59:01.178Z,82.98
2023-05-19T06:00:01.157Z,82.54
2023-05-19T06:01:01.121Z,83.46
2023-05-19T06:02:01.231Z,82.03
2023-05-19T06:03:01.250Z,81.88
2023-05-19T06:04:01.102Z,81.07
2023-05-19T06:05:01.160Z,81.44
2023-05-19T06:06:01.226Z,80.73
2023-05-19T06:07:01.156Z,80.79
2023-05-19T06:08:01.135Z,80.99
2023-05-19T06:09:01.014Z,80.48
2023-05-19T06:10:01.056Z,80.44
2023-05-19T06:11:01.007Z,80.34
2023-05-19T06:12:01.042Z,79.52
2023-05-19T06:13:01.006Z,79.80
2023-05-19T06:14:01.092Z,81.12
2023-05-19T06:15:00.943Z,77.75
2023-05-19T06:16:02.145Z,78.53
2023-05-19T06:17:00.906Z,78.02
2023-05-19T06:18:01.010Z,77.00
2023-05-19T06:19:00.925Z,76.35
2023-05-19T06:20:00.914Z,76.46
2023-05-19T06:21:00.884Z,75.92
2023-05-19T06:22:00.857Z,75.30
2023-05-19T06:23:00.817Z,74.76
2023-05-19T06:24:00.861Z,75.27
2023-05-19T06:25:00.823Z,74.15
2023-05-19T06:26:00.861Z,73.84
2023-05-19T06:27:00.798Z,74.25
2023-05-19T06:28:00.786Z,74.15
2023-05-19T06:29:00.782Z,74.41
2023-05-19T06:30:00.753Z,73.91
2023-05-19T06:31:00.762Z,72.86
2023-05-19T06:32:00.786Z,73.26
2023-05-19T06:33:00.769Z,72.21
2023-05-19T06:34:00.704Z,72.21
2023-05-19T06:35:00.662Z,70.79
2023-05-19T06:36:00.711Z,71.70
2023-05-19T06:37:00.637Z,70.79
2023-05-19T06:38:00.714Z,70.79
2023-05-19T06:39:02.587Z,71.09
2023-05-19T06:40:00.623Z,71.80
2023-05-19T06:41:00.617Z,71.77
2023-05-19T06:42:00.592Z,70.65
2023-05-19T06:43:00.556Z,70.21
2023-05-19T06:44:00.625Z,70.92
2023-05-19T06:45:00.582Z,70.42
2023-05-19T06:46:00.575Z,71.33
2023-05-19T06:47:00.566Z,70.08
2023-05-19T06:48:00.595Z,70.08
2023-05-19T06:49:00.547Z,69.43
2023-05-19T06:50:01.134Z,69.34
2023-05-19T06:51:00.480Z,69.13
2023-05-19T06:52:00.461Z,70.15
2023-05-19T06:53:00.451Z,69.10
2023-05-19T06:54:00.433Z,68.19
2023-05-19T06:55:00.396Z,68.70
2023-05-19T06:56:00.606Z,68.49
2023-05-19T06:57:00.362Z,67.68
2023-05-19T06:58:00.419Z,70.62
2023-05-19T06:59:00.374Z,67.68
2023-05-19T07:00:00.349Z,67.27
2023-05-19T07:01:00.354Z,68.12
2023-05-19T07:02:00.480Z,68.70
2023-05-19T07:03:00.450Z,68.19
2023-05-19T07:04:00.474Z,68.26
2023-05-19T07:05:00.285Z,67.44
2023-05-19T07:06:00.293Z,68.02
2023-05-19T07:07:00.237Z,67.31
2023-05-19T07:08:00.304Z,66.88
2023-05-19T07:09:00.210Z,65.36
2023-05-19T07:10:00.256Z,66.77
2023-05-19T07:11:00.222Z,67.35
2023-05-19T07:12:00.193Z,64.41
2023-05-19T07:13:00.200Z,64.21
2023-05-19T07:14:00.203Z,65.19
2023-05-19T07:15:00.149Z,65.90
2023-05-19T07:16:00.297Z,65.06
2023-05-19T07:17:00.104Z,63.24
2023-05-19T07:18:00.274Z,63.34
2023-05-19T07:19:00.239Z,63.34
2023-05-19T07:20:00.242Z,63.13
2023-05-19T07:21:00.100Z,63.27
2023-05-19T07:22:00.149Z,64.58
2023-05-19T07:23:00.080Z,63.78
2023-05-19T07:24:00.057Z,63.90
2023-05-19T07:25:00.052Z,65.02
2023-05-19T07:26:00.055Z,64.69
2023-05-19T07:27:00.002Z,65.06
2023-05-19T07:27:59.989Z,63.13
2023-05-19T07:28:59.970Z,63.51
2023-05-19T07:29:59.957Z,63.61
2023-05-19T07:30:59.980Z,63.81
2023-05-19T07:32:00.045Z,65.53
2023-05-19T07:32:59.986Z,63.78
2023-05-19T07:33:59.890Z,62.34
2023-05-19T07:34:59.899Z,63.52
2023-05-19T07:35:59.882Z,62.38
2023-05-19T07:36:59.929Z,61.85
2023-05-19T07:37:59.863Z,61.14
2023-05-19T07:38:59.865Z,58.82
2023-05-19T07:39:59.837Z,59.02
2023-05-19T07:40:59.847Z,61.00
2023-05-19T07:41:59.810Z,62.04
2023-05-19T07:42:59.800Z,62.04
2023-05-19T07:43:59.790Z,60.80
2023-05-19T07:44:59.806Z,61.03
2023-05-19T07:45:59.738Z,60.69
2023-05-19T07:46:59.741Z,60.19
2023-05-19T07:47:59.745Z,60.39
2023-05-19T07:48:59.701Z,59.99
2023-05-19T07:49:59.741Z,60.46
2023-05-19T07:50:59.704Z,60.77
2023-05-19T07:51:59.633Z,60.06
2023-05-19T07:52:59.647Z,60.33
2023-05-19T07:53:59.626Z,58.92
2023-05-19T07:54:59.658Z,58.29
2023-05-19T07:55:59.605Z,57.68
2023-05-19T07:56:59.632Z,57.76
2023-05-19T07:57:59.549Z,59.50
2023-05-19T07:58:59.562Z,58.39
2023-05-19T07:59:59.552Z,58.56
2023-05-19T08:00:59.573Z,57.93
2023-05-19T08:01:59.598Z,56.65
2023-05-19T08:02:59.596Z,59.88
2023-05-19T08:03:59.538Z,59.64
2023-05-19T08:04:59.518Z,57.60
2023-05-19T08:05:59.441Z,57.57
2023-05-19T08:06:59.452Z,58.55
2023-05-19T08:07:59.469Z,54.93
2023-05-19T08:08:59.446Z,54.20
2023-05-19T08:09:59.393Z,55.88
2023-05-19T08:10:59.398Z,56.09
2023-05-19T08:11:59.388Z,55.96
2023-05-19T08:12:59.376Z,55.33
2023-05-19T08:13:59.396Z,55.23
2023-05-19T08:15:01.366Z,55.43
2023-05-19T08:15:59.376Z,54.43
2023-05-19T08:16:59.351Z,54.55
2023-05-19T08:17:59.336Z,56.19
2023-05-19T08:18:59.345Z,57.09
2023-05-19T08:19:59.324Z,54.58
2023-05-19T08:20:59.276Z,56.69
2023-05-19T08:21:59.261Z,54.05
2023-05-19T08:22:59.309Z,54.08
2023-05-19T08:23:59.207Z,55.96
2023-05-19T08:24:59.270Z,55.28
2023-05-19T08:25:59.236Z,56.49
2023-05-19T08:26:59.201Z,55.79
2023-05-19T08:27:59.200Z,55.46
2023-05-19T08:28:59.203Z,55.23
2023-05-19T08:29:59.168Z,54.10
2023-05-19T08:30:59.180Z,53.14
2023-05-19T08:31:59.139Z,52.34
2023-05-19T08:32:59.175Z,52.24
2023-05-19T08:33:59.078Z,51.94
2023-05-19T08:34:59.114Z,52.55
2023-05-19T08:36:00.070Z,51.24
2023-05-19T08:36:59.064Z,51.21
2023-05-19T08:38:00.158Z,51.89
2023-05-19T08:38:59.077Z,51.27
2023-05-19T08:39:59.006Z,51.07
2023-05-19T08:40:59.005Z,50.94
2023-05-19T08:41:59.001Z,48.19
2023-05-19T08:42:59.009Z,49.21
2023-05-19T08:43:58.976Z,50.01
2023-05-19T08:44:58.978Z,50.51
2023-05-19T08:45:58.910Z,50.62
2023-05-19T08:46:58.958Z,52.09
2023-05-19T08:47:58.935Z,51.27
2023-05-19T08:48:58.900Z,50.32
2023-05-19T08:49:58.991Z,49.99
2023-05-19T08:50:58.919Z,50.97
2023-05-19T08:51:58.834Z,46.77
2023-05-19T08:52:58.887Z,46.99
2023-05-19T08:53:58.809Z,48.52
2023-05-19T08:54:58.816Z,49.44
2023-05-19T08:55:58.858Z,49.91
2023-05-19T08:56:58.809Z,48.72
2023-05-19T08:57:58.778Z,48.36
2023-05-19T08:58:58.775Z,48.66
2023-05-19T08:59:58.752Z,49.14
2023-05-19T09:00:58.781Z,51.14
2023-05-19T09:01:58.836Z,49.84
2023-05-19T09:03:06.025Z,48.64
2023-05-19T09:03:59.722Z,49.59
2023-05-19T09:04:58.735Z,49.29
2023-05-19T09:05:58.669Z,47.11
2023-05-19T09:06:58.660Z,47.89
2023-05-19T09:07:58.684Z,46.57
2023-05-19T09:08:58.623Z,45.35
2023-05-19T09:09:58.614Z,46.45
2023-05-19T09:10:58.628Z,45.07
2023-05-19T09:11:58.559Z,46.95
2023-05-19T09:12:58.573Z,46.15
2023-05-19T09:13:58.667Z,45.33
2023-05-19T09:14:58.579Z,44.31
2023-05-19T09:15:58.525Z,45.31
2023-05-19T09:16:58.598Z,44.78
2023-05-19T09:17:58.508Z,47.97
2023-05-19T09:18:58.575Z,48.05
2023-05-19T09:19:58.514Z,46.50
2023-05-19T09:20:58.461Z,43.93
2023-05-19T09:21:58.453Z,46.07
2023-05-19T09:22:58.462Z,46.27
2023-05-19T09:23:58.403Z,45.65
2023-05-19T09:24:58.438Z,46.13
2023-05-19T09:25:58.464Z,43.69
2023-05-19T09:27:00.059Z,43.27
2023-05-19T09:27:59.339Z,44.37
2023-05-19T09:28:58.363Z,43.93
2023-05-19T09:29:58.346Z,43.01
2023-05-19T09:30:58.355Z,42.71
2023-05-19T09:31:58.452Z,45.10
2023-05-19T09:32:58.401Z,43.59
2023-05-19T09:33:58.270Z,40.60
2023-05-19T09:34:58.280Z,40.64
2023-05-19T09:35:58.271Z,41.31
2023-05-19T09:36:58.253Z,41.87
2023-05-19T09:37:58.358Z,41.24
2023-05-19T09:38:58.249Z,40.86
2023-05-19T09:39:58.187Z,41.36
2023-05-19T09:40:58.400Z,40.06
2023-05-19T09:41:58.162Z,40.06
2023-05-19T09:42:58.168Z,40.58
2023-05-19T09:43:58.190Z,41.91
2023-05-19T09:44:58.171Z,42.67
2023-05-19T09:45:58.157Z,43.03
2023-05-19T09:46:58.241Z,45.05
2023-05-19T09:47:58.139Z,45.27
2023-05-19T09:48:58.097Z,45.09
2023-05-19T09:49:58.116Z,45.54
2023-05-19T09:50:58.218Z,46.12
2023-05-19T09:51:58.037Z,45.63
2023-05-19T09:52:58.068Z,43.39
2023-05-19T09:53:58.001Z,42.87
2023-05-19T09:54:58.008Z,43.03
2023-05-19T09:55:58.030Z,43.15
2023-05-19T09:56:57.984Z,42.05
2023-05-19T09:57:57.975Z,42.87
2023-05-19T09:58:57.984Z,42.99
2023-05-19T09:59:57.922Z,42.95
2023-05-19T10:00:57.954Z,44.21
2023-05-19T10:01:57.987Z,42.59
2023-05-19T10:02:57.969Z,42.35
2023-05-19T10:03:57.865Z,43.13
2023-05-19T10:04:57.954Z,41.20
2023-05-19T10:05:57.844Z,40.28
2023-05-19T10:06:57.853Z,39.57
2023-05-19T10:07:57.860Z,39.75
2023-05-19T10:08:57.823Z,36.77
2023-05-19T10:09:58.660Z,37.46
2023-05-19T10:10:57.847Z,38.47
2023-05-19T10:11:57.760Z,37.77
2023-05-19T10:12:57.801Z,38.16
2023-05-19T10:13:57.788Z,36.68
2023-05-19T10:14:57.789Z,39.65
2023-05-19T10:15:59.619Z,39.31
2023-05-19T10:16:57.839Z,37.79
2023-05-19T10:17:57.742Z,38.46
2023-05-19T10:18:57.728Z,35.69
2023-05-19T10:19:57.710Z,37.13
2023-05-19T10:20:57.680Z,38.77
2023-05-19T10:21:57.673Z,40.62
2023-05-19T10:22:57.668Z,42.45
2023-05-19T10:23:57.606Z,41.58
2023-05-19T10:24:57.638Z,41.63
2023-05-19T10:25:57.743Z,38.91
2023-05-19T10:26:57.598Z,38.75
2023-05-19T10:27:57.582Z,36.89
2023-05-19T10:28:57.556Z,37.79
2023-05-19T10:29:57.553Z,37.64
2023-05-19T10:30:57.561Z,38.10
2023-05-19T10:31:57.563Z,38.27
2023-05-19T10:32:57.642Z,38.91
2023-05-19T10:33:57.466Z,38.26
2023-05-19T10:34:57.486Z,36.43
2023-05-19T10:35:57.485Z,36.91
2023-05-19T10:36:57.448Z,36.83
2023-05-19T10:37:57.481Z,36.04
2023-05-19T10:38:57.456Z,36.33
2023-05-19T10:39:57.385Z,35.31
2023-05-19T10:40:57.424Z,35.29
2023-05-19T10:41:58.325Z,36.04
2023-05-19T10:42:57.368Z,37.23
2023-05-19T10:43:57.384Z,37.90
2023-05-19T10:44:57.347Z,37.11
2023-05-19T10:45:58.030Z,36.43
2023-05-19T10:46:57.473Z,35.94
2023-05-19T10:47:57.335Z,38.43
2023-05-19T10:48:58.257Z,36.04
2023-05-19T10:49:57.338Z,38.42
2023-05-19T10:50:57.292Z,38.30
2023-05-19T10:51:57.237Z,37.37
2023-05-19T10:52:57.271Z,35.95
2023-05-19T10:53:57.203Z,34.89
2023-05-19T10:54:57.213Z,35.31
2023-05-19T10:55:57.238Z,35.91
2023-05-19T10:56:57.191Z,39.48
2023-05-19T10:57:57.196Z,42.10
2023-05-19T10:58:57.208Z,41.66
2023-05-19T10:59:57.154Z,42.13
2023-05-19T11:00:57.167Z,40.10
2023-05-19T11:01:57.181Z,39.04
2023-05-19T11:02:57.132Z,38.51
2023-05-19T11:03:57.324Z,39.45
2023-05-19T11:04:57.120Z,38.71
2023-05-19T11:05:57.038Z,37.81
2023-05-19T11:06:57.120Z,38.79
2023-05-19T11:07:57.172Z,36.61
2023-05-19T11:08:57.032Z,37.34
2023-05-19T11:09:57.020Z,39.59
2023-05-19T11:10:57.029Z,40.82
2023-05-19T11:11:56.967Z,39.67
2023-05-19T11:13:56.968Z,39.98
2023-05-19T11:14:56.953Z,39.05
2023-05-19T11:15:56.940Z,38.64
2023-05-19T11:16:57.009Z,39.35
2023-05-19T11:17:57.051Z,38.93
2023-05-19T11:18:57.005Z,41.47
2023-05-19T11:19:56.914Z,38.62
2023-05-19T11:20:56.890Z,37.79
2023-05-19T11:21:56.871Z,37.87
2023-05-19T11:22:56.873Z,41.44
2023-05-19T11:23:56.900Z,38.11
2023-05-19T11:24:56.843Z,38.18
2023-05-19T11:25:56.813Z,39.01
2023-05-19T11:26:56.806Z,36.90
2023-05-19T11:27:56.781Z,36.46
2023-05-19T11:28:56.772Z,36.24
2023-05-19T11:29:56.752Z,36.76
2023-05-19T11:30:56.772Z,34.78
2023-05-19T11:31:56.753Z,35.78
2023-05-19T11:32:56.808Z,36.61
2023-05-19T11:33:56.694Z,33.52
2023-05-19T11:34:57.368Z,35.21
2023-05-19T11:35:56.678Z,36.66
2023-05-19T11:36:56.638Z,35.06
2023-05-19T11:37:56.708Z,35.02
2023-05-19T11:38:56.652Z,33.47
2023-05-19T11:39:57.333Z,36.30
2023-05-19T11:40:56.622Z,34.98
2023-05-19T11:41:56.613Z,36.93
2023-05-19T11:42:56.554Z,38.48
2023-05-19T11:43:56.652Z,40.12
2023-05-19T11:44:56.545Z,40.95
2023-05-19T11:45:56.651Z,38.64
2023-05-19T11:46:56.578Z,39.38
2023-05-19T11:48:02.421Z,38.81
2023-05-19T11:48:57.552Z,35.55
2023-05-19T11:49:56.504Z,35.64
2023-05-19T11:50:56.463Z,36.49
2023-05-19T11:51:56.496Z,36.04
2023-05-19T11:52:56.470Z,38.46
2023-05-19T11:53:56.449Z,40.01
2023-05-19T11:54:56.449Z,39.46
2023-05-19T11:55:56.445Z,40.89
2023-05-19T11:56:56.388Z,42.61
2023-05-19T11:58:57.396Z,43.43
2023-05-19T11:59:56.384Z,41.75
2023-05-19T12:00:56.386Z,42.16
2023-05-19T12:01:56.354Z,40.77
2023-05-19T12:02:56.400Z,40.59
2023-05-19T12:03:56.571Z,41.38
2023-05-19T12:04:56.313Z,40.58
2023-05-19T12:05:56.351Z,39.40
2023-05-19T12:06:56.381Z,38.33
2023-05-19T12:07:56.264Z,36.98
2023-05-19T12:08:56.224Z,35.13
2023-05-19T12:09:56.267Z,33.80
2023-05-19T12:10:56.235Z,33.70
2023-05-19T12:11:56.217Z,35.80
2023-05-19T12:12:56.234Z,33.52
2023-05-19T12:13:56.187Z,33.73
2023-05-19T12:14:56.149Z,34.63
2023-05-19T12:15:56.236Z,38.32
2023-05-19T12:16:56.210Z,35.61
2023-05-19T12:17:56.241Z,37.07
2023-05-19T12:18:56.290Z,38.02
2023-05-19T12:19:56.118Z,39.46
2023-05-19T12:20:56.099Z,41.67
2023-05-19T12:21:56.084Z,40.69
2023-05-19T12:22:56.040Z,42.19
2023-05-19T12:23:56.094Z,40.52
2023-05-19T12:24:56.112Z,42.74
2023-05-19T12:25:56.045Z,43.24
2023-05-19T12:26:56.000Z,41.74
2023-05-19T12:27:56.882Z,42.71
2023-05-19T12:28:55.968Z,43.79
2023-05-19T12:29:56.000Z,38.31
2023-05-19T12:30:55.984Z,36.66
2023-05-19T12:31:56.020Z,35.16
2023-05-19T12:32:55.982Z,34.68
2023-05-19T12:33:55.933Z,34.75
2023-05-19T12:34:55.894Z,38.09
2023-05-19T12:35:55.924Z,38.06
2023-05-19T12:36:55.893Z,38.87
2023-05-19T12:37:55.896Z,40.00
2023-05-19T12:38:55.862Z,42.69
2023-05-19T12:39:55.860Z,40.91
2023-05-19T12:40:55.839Z,41.91
2023-05-19T12:41:55.820Z,42.61
2023-05-19T12:42:55.889Z,41.74
2023-05-19T12:43:55.818Z,42.83
2023-05-19T12:44:55.756Z,42.33
2023-05-19T12:45:55.809Z,42.93
2023-05-19T12:46:55.777Z,43.84
2023-05-19T12:47:55.793Z,43.54
2023-05-19T12:48:55.775Z,43.91
2023-05-19T12:49:55.737Z,43.01
2023-05-19T12:50:55.841Z,42.41
2023-05-19T12:51:55.754Z,44.21
2023-05-19T12:52:55.653Z,42.61
2023-05-19T12:53:55.696Z,41.71
2023-05-19T12:54:55.713Z,41.41
2023-05-19T12:55:55.646Z,40.89